sensor_id;sensor_type;location;lat;lon;timestamp;temperature;humidity
12446;DHT22;6287;50.984;7.022;2023-05-07T00:01:21;14.70;99.90
12446;DHT22;6287;50.984;7.022;2023-05-07T00:03:47;14.80;99.90
12446;DHT22;6287;50.984;7.022;2023-05-07T00:06:12;15.00;99.90
12446;DHT22;6287;50.984;7.022;2023-05-07T00:08:41;14.80;99.90
12446;DHT22;6287;50.984;7.022;2023-05-07T00:11:09;14.80;99.90
12446;DHT22;6287;50.984;7.022;2023-05-07T00:13:34;15.10;99.90
12446;DHT22;6287;50.984;7.022;2023-05-07T00:16:02;14.90;99.90
12446;DHT22;6287;50.984;7.022;2023-05-07T00:18:30;14.90;99.90
12446;DHT22;6287;50.984;7.022;2023-05-07T00:20:56;14.90;99.90
12446;DHT22;6287;50.984;7.022;2023-05-07T00:23:22;14.80;99.90
12446;DHT22;6287;50.984;7.022;2023-05-07T00:25:48;14.80;99.90
12446;DHT22;6287;50.984;7.022;2023-05-07T00:28:14;14.70;99.90
12446;DHT22;6287;50.984;7.022;2023-05-07T00:30:39;15.10;99.90
12446;DHT22;6287;50.984;7.022;2023-05-07T00:33:11;14.80;99.90
12446;DHT22;6287;50.984;7.022;2023-05-07T00:35:37;14.70;99.90
12446;DHT22;6287;50.984;7.022;2023-05-07T00:38:03;14.70;99.90
12446;DHT22;6287;50.984;7.022;2023-05-07T00:40:28;14.80;99.90
12446;DHT22;6287;50.984;7.022;2023-05-07T00:42:54;14.70;99.90
12446;DHT22;6287;50.984;7.022;2023-05-07T00:45:25;15.40;99.90
12446;DHT22;6287;50.984;7.022;2023-05-07T00:48:02;15.00;99.90
12446;DHT22;6287;50.984;7.022;2023-05-07T00:50:29;14.60;99.90
12446;DHT22;6287;50.984;7.022;2023-05-07T00:52:55;14.60;99.90
12446;DHT22;6287;50.984;7.022;2023-05-07T00:55:22;15.00;99.90
12446;DHT22;6287;50.984;7.022;2023-05-07T00:57:47;14.60;99.90
12446;DHT22;6287;50.984;7.022;2023-05-07T01:00:16;14.60;99.90
12446;DHT22;6287;50.984;7.022;2023-05-07T01:02:43;14.60;99.90
12446;DHT22;6287;50.984;7.022;2023-05-07T01:05:14;14.60;99.90
12446;DHT22;6287;50.984;7.022;2023-05-07T01:07:43;14.60;99.90
12446;DHT22;6287;50.984;7.022;2023-05-07T01:10:10;14.70;99.90
12446;DHT22;6287;50.984;7.022;2023-05-07T01:12:37;14.60;99.90
12446;DHT22;6287;50.984;7.022;2023-05-07T01:15:04;15.00;99.90
12446;DHT22;6287;50.984;7.022;2023-05-07T01:17:36;14.70;99.90
12446;DHT22;6287;50.984;7.022;2023-05-07T01:20:04;15.00;99.90
12446;DHT22;6287;50.984;7.022;2023-05-07T01:22:38;14.60;99.90
12446;DHT22;6287;50.984;7.022;2023-05-07T01:25:06;14.90;99.90
12446;DHT22;6287;50.984;7.022;2023-05-07T01:27:38;14.60;99.90
12446;DHT22;6287;50.984;7.022;2023-05-07T01:30:09;14.90;99.90
12446;DHT22;6287;50.984;7.022;2023-05-07T01:32:40;14.50;99.90
12446;DHT22;6287;50.984;7.022;2023-05-07T01:35:17;13.90;99.90
12446;DHT22;6287;50.984;7.022;2023-05-07T01:37:47;14.90;99.90
12446;DHT22;6287;50.984;7.022;2023-05-07T01:40:16;14.60;99.90
12446;DHT22;6287;50.984;7.022;2023-05-07T01:42:43;14.70;99.90
12446;DHT22;6287;50.984;7.022;2023-05-07T01:45:09;14.90;99.90
12446;DHT22;6287;50.984;7.022;2023-05-07T01:47:36;14.50;99.90
12446;DHT22;6287;50.984;7.022;2023-05-07T01:50:04;14.80;99.90
12446;DHT22;6287;50.984;7.022;2023-05-07T01:52:38;14.50;99.90
12446;DHT22;6287;50.984;7.022;2023-05-07T01:55:09;14.50;99.90
12446;DHT22;6287;50.984;7.022;2023-05-07T01:57:39;14.50;99.90
12446;DHT22;6287;50.984;7.022;2023-05-07T02:00:07;14.50;99.90
12446;DHT22;6287;50.984;7.022;2023-05-07T02:02:34;14.40;99.90
12446;DHT22;6287;50.984;7.022;2023-05-07T02:05:02;14.80;99.90
12446;DHT22;6287;50.984;7.022;2023-05-07T02:07:28;14.40;99.90
12446;DHT22;6287;50.984;7.022;2023-05-07T02:09:56;14.50;99.90
12446;DHT22;6287;50.984;7.022;2023-05-07T02:12:22;14.70;99.90
12446;DHT22;6287;50.984;7.022;2023-05-07T02:14:50;14.70;99.90
12446;DHT22;6287;50.984;7.022;2023-05-07T02:17:16;14.70;99.90
12446;DHT22;6287;50.984;7.022;2023-05-07T02:19:44;14.40;99.90
12446;DHT22;6287;50.984;7.022;2023-05-07T02:22:10;14.90;99.90
12446;DHT22;6287;50.984;7.022;2023-05-07T02:24:37;14.80;99.90
12446;DHT22;6287;50.984;7.022;2023-05-07T02:27:05;14.30;99.90
12446;DHT22;6287;50.984;7.022;2023-05-07T02:29:31;14.40;99.90
12446;DHT22;6287;50.984;7.022;2023-05-07T02:31:56;14.50;99.90
12446;DHT22;6287;50.984;7.022;2023-05-07T02:34:24;14.40;99.90
12446;DHT22;6287;50.984;7.022;2023-05-07T02:36:52;14.30;99.90
12446;DHT22;6287;50.984;7.022;2023-05-07T02:39:18;14.00;99.90
12446;DHT22;6287;50.984;7.022;2023-05-07T02:41:46;14.00;99.90
12446;DHT22;6287;50.984;7.022;2023-05-07T02:44:11;14.30;99.90
12446;DHT22;6287;50.984;7.022;2023-05-07T02:46:37;13.90;99.90
12446;DHT22;6287;50.984;7.022;2023-05-07T02:49:07;14.10;99.90
12446;DHT22;6287;50.984;7.022;2023-05-07T02:51:32;14.10;99.90
12446;DHT22;6287;50.984;7.022;2023-05-07T02:53:58;14.00;99.90
12446;DHT22;6287;50.984;7.022;2023-05-07T02:56:26;13.70;99.90
12446;DHT22;6287;50.984;7.022;2023-05-07T02:58:54;13.70;99.90
12446;DHT22;6287;50.984;7.022;2023-05-07T03:01:22;13.70;99.90
12446;DHT22;6287;50.984;7.022;2023-05-07T03:03:50;13.80;99.90
12446;DHT22;6287;50.984;7.022;2023-05-07T03:06:16;14.00;99.90
12446;DHT22;6287;50.984;7.022;2023-05-07T03:08:41;14.00;99.90
12446;DHT22;6287;50.984;7.022;2023-05-07T03:11:07;13.90;99.90
12446;DHT22;6287;50.984;7.022;2023-05-07T03:13:35;15.30;99.90
12446;DHT22;6287;50.984;7.022;2023-05-07T03:16:03;14.40;99.90
12446;DHT22;6287;50.984;7.022;2023-05-07T03:18:28;13.70;99.90
12446;DHT22;6287;50.984;7.022;2023-05-07T03:20:56;14.10;99.90
12446;DHT22;6287;50.984;7.022;2023-05-07T03:23:25;14.00;99.90
12446;DHT22;6287;50.984;7.022;2023-05-07T03:25:53;14.40;99.90
12446;DHT22;6287;50.984;7.022;2023-05-07T03:28:18;13.90;99.90
12446;DHT22;6287;50.984;7.022;2023-05-07T03:30:44;13.90;99.90
12446;DHT22;6287;50.984;7.022;2023-05-07T03:33:11;14.30;99.90
12446;DHT22;6287;50.984;7.022;2023-05-07T03:35:44;14.30;99.90
12446;DHT22;6287;50.984;7.022;2023-05-07T03:38:09;13.80;99.90
12446;DHT22;6287;50.984;7.022;2023-05-07T03:40:35;13.90;99.90
12446;DHT22;6287;50.984;7.022;2023-05-07T03:43:03;14.50;99.90
12446;DHT22;6287;50.984;7.022;2023-05-07T03:45:28;13.90;99.90
12446;DHT22;6287;50.984;7.022;2023-05-07T03:47:54;13.80;99.90
12446;DHT22;6287;50.984;7.022;2023-05-07T03:50:20;13.80;99.90
12446;DHT22;6287;50.984;7.022;2023-05-07T03:52:45;13.90;99.90
12446;DHT22;6287;50.984;7.022;2023-05-07T03:55:11;13.90;99.90
12446;DHT22;6287;50.984;7.022;2023-05-07T03:57:39;13.70;99.90
12446;DHT22;6287;50.984;7.022;2023-05-07T04:00:05;13.80;99.90
12446;DHT22;6287;50.984;7.022;2023-05-07T04:02:36;13.30;99.90
12446;DHT22;6287;50.984;7.022;2023-05-07T04:05:01;13.50;99.90
12446;DHT22;6287;50.984;7.022;2023-05-07T04:07:29;13.30;99.90
12446;DHT22;6287;50.984;7.022;2023-05-07T04:09:55;13.70;99.90
12446;DHT22;6287;50.984;7.022;2023-05-07T04:12:23;13.60;99.90
12446;DHT22;6287;50.984;7.022;2023-05-07T04:14:48;13.30;99.90
12446;DHT22;6287;50.984;7.022;2023-05-07T04:17:14;13.30;99.90
12446;DHT22;6287;50.984;7.022;2023-05-07T04:19:39;14.30;99.90
12446;DHT22;6287;50.984;7.022;2023-05-07T04:22:09;13.30;99.90
12446;DHT22;6287;50.984;7.022;2023-05-07T04:24:35;13.30;99.90
12446;DHT22;6287;50.984;7.022;2023-05-07T04:27:01;13.30;99.90
12446;DHT22;6287;50.984;7.022;2023-05-07T04:29:29;13.90;99.90
12446;DHT22;6287;50.984;7.022;2023-05-07T04:31:54;13.70;99.90
12446;DHT22;6287;50.984;7.022;2023-05-07T04:34:21;13.70;99.90
12446;DHT22;6287;50.984;7.022;2023-05-07T04:36:49;13.50;99.90
12446;DHT22;6287;50.984;7.022;2023-05-07T04:39:15;14.10;99.90
12446;DHT22;6287;50.984;7.022;2023-05-07T04:41:41;13.60;99.90
12446;DHT22;6287;50.984;7.022;2023-05-07T04:44:07;13.80;99.90
12446;DHT22;6287;50.984;7.022;2023-05-07T04:46:34;14.00;99.90
12446;DHT22;6287;50.984;7.022;2023-05-07T04:49:00;13.90;99.90
12446;DHT22;6287;50.984;7.022;2023-05-07T04:51:25;13.90;99.90
12446;DHT22;6287;50.984;7.022;2023-05-07T04:53:51;13.90;99.90
12446;DHT22;6287;50.984;7.022;2023-05-07T04:56:19;14.20;99.90
12446;DHT22;6287;50.984;7.022;2023-05-07T04:58:47;14.30;99.90
12446;DHT22;6287;50.984;7.022;2023-05-07T05:01:13;14.20;99.90
12446;DHT22;6287;50.984;7.022;2023-05-07T05:03:39;14.80;99.90
12446;DHT22;6287;50.984;7.022;2023-05-07T05:06:05;14.60;99.90
12446;DHT22;6287;50.984;7.022;2023-05-07T05:08:33;14.30;99.90
12446;DHT22;6287;50.984;7.022;2023-05-07T05:11:01;14.30;99.90
12446;DHT22;6287;50.984;7.022;2023-05-07T05:13:27;14.50;99.90
12446;DHT22;6287;50.984;7.022;2023-05-07T05:15:55;14.50;99.90
12446;DHT22;6287;50.984;7.022;2023-05-07T05:18:23;14.50;99.90
12446;DHT22;6287;50.984;7.022;2023-05-07T05:20:49;14.70;99.90
12446;DHT22;6287;50.984;7.022;2023-05-07T05:23:19;14.90;99.90
12446;DHT22;6287;50.984;7.022;2023-05-07T05:25:45;14.70;99.90
12446;DHT22;6287;50.984;7.022;2023-05-07T05:28:11;14.80;99.90
12446;DHT22;6287;50.984;7.022;2023-05-07T05:30:36;14.80;99.90
12446;DHT22;6287;50.984;7.022;2023-05-07T05:33:02;14.90;99.90
12446;DHT22;6287;50.984;7.022;2023-05-07T05:35:27;15.00;99.90
12446;DHT22;6287;50.984;7.022;2023-05-07T05:37:55;15.00;99.90
12446;DHT22;6287;50.984;7.022;2023-05-07T05:40:23;15.40;99.90
12446;DHT22;6287;50.984;7.022;2023-05-07T05:42:49;15.30;99.90
12446;DHT22;6287;50.984;7.022;2023-05-07T05:45:17;15.00;99.90
12446;DHT22;6287;50.984;7.022;2023-05-07T05:47:47;15.10;99.90
12446;DHT22;6287;50.984;7.022;2023-05-07T05:50:15;15.10;99.90
12446;DHT22;6287;50.984;7.022;2023-05-07T05:52:41;15.00;99.90
12446;DHT22;6287;50.984;7.022;2023-05-07T05:55:07;15.60;99.90
12446;DHT22;6287;50.984;7.022;2023-05-07T05:57:33;15.30;99.90
12446;DHT22;6287;50.984;7.022;2023-05-07T06:00:02;15.70;99.90
12446;DHT22;6287;50.984;7.022;2023-05-07T06:02:29;15.70;99.90
12446;DHT22;6287;50.984;7.022;2023-05-07T06:04:55;15.60;99.90
12446;DHT22;6287;50.984;7.022;2023-05-07T06:07:20;16.30;99.90
12446;DHT22;6287;50.984;7.022;2023-05-07T06:09:46;16.00;99.90
12446;DHT22;6287;50.984;7.022;2023-05-07T06:12:12;15.90;99.90
12446;DHT22;6287;50.984;7.022;2023-05-07T06:14:40;16.00;99.90
12446;DHT22;6287;50.984;7.022;2023-05-07T06:17:07;16.10;99.90
12446;DHT22;6287;50.984;7.022;2023-05-07T06:19:35;16.20;99.90
12446;DHT22;6287;50.984;7.022;2023-05-07T06:22:03;16.30;99.90
12446;DHT22;6287;50.984;7.022;2023-05-07T06:24:31;16.30;99.90
12446;DHT22;6287;50.984;7.022;2023-05-07T06:26:59;16.30;99.90
12446;DHT22;6287;50.984;7.022;2023-05-07T06:29:25;16.40;99.90
12446;DHT22;6287;50.984;7.022;2023-05-07T06:31:55;16.50;99.90
12446;DHT22;6287;50.984;7.022;2023-05-07T06:34:23;16.60;99.90
12446;DHT22;6287;50.984;7.022;2023-05-07T06:36:51;16.80;99.90
12446;DHT22;6287;50.984;7.022;2023-05-07T06:39:19;17.00;99.90
12446;DHT22;6287;50.984;7.022;2023-05-07T06:41:47;17.10;99.90
12446;DHT22;6287;50.984;7.022;2023-05-07T06:44:15;17.20;99.90
12446;DHT22;6287;50.984;7.022;2023-05-07T06:46:43;17.20;99.90
12446;DHT22;6287;50.984;7.022;2023-05-07T06:49:08;17.50;99.90
12446;DHT22;6287;50.984;7.022;2023-05-07T06:51:36;17.30;99.90
12446;DHT22;6287;50.984;7.022;2023-05-07T06:54:02;17.40;99.90
12446;DHT22;6287;50.984;7.022;2023-05-07T06:56:29;17.60;99.90
12446;DHT22;6287;50.984;7.022;2023-05-07T06:58:55;17.70;99.90
12446;DHT22;6287;50.984;7.022;2023-05-07T07:01:25;18.00;99.90
12446;DHT22;6287;50.984;7.022;2023-05-07T07:03:56;17.90;99.90
12446;DHT22;6287;50.984;7.022;2023-05-07T07:06:21;18.10;99.90
12446;DHT22;6287;50.984;7.022;2023-05-07T07:08:47;18.20;99.90
12446;DHT22;6287;50.984;7.022;2023-05-07T07:11:15;18.30;99.90
12446;DHT22;6287;50.984;7.022;2023-05-07T07:13:43;18.40;99.90
12446;DHT22;6287;50.984;7.022;2023-05-07T07:16:11;18.50;99.90
12446;DHT22;6287;50.984;7.022;2023-05-07T07:18:39;18.50;99.90
12446;DHT22;6287;50.984;7.022;2023-05-07T07:21:05;18.60;99.90
12446;DHT22;6287;50.984;7.022;2023-05-07T07:23:35;18.80;99.90
12446;DHT22;6287;50.984;7.022;2023-05-07T07:26:06;19.00;99.90
12446;DHT22;6287;50.984;7.022;2023-05-07T07:28:36;16.90;99.90
12446;DHT22;6287;50.984;7.022;2023-05-07T07:31:09;19.50;99.90
12446;DHT22;6287;50.984;7.022;2023-05-07T07:33:35;19.40;99.90
12446;DHT22;6287;50.984;7.022;2023-05-07T07:36:00;19.40;99.90
12446;DHT22;6287;50.984;7.022;2023-05-07T07:38:26;19.60;99.90
12446;DHT22;6287;50.984;7.022;2023-05-07T07:40:53;19.80;99.90
12446;DHT22;6287;50.984;7.022;2023-05-07T07:43:21;19.90;99.90
12446;DHT22;6287;50.984;7.022;2023-05-07T07:45:49;20.00;99.90
12446;DHT22;6287;50.984;7.022;2023-05-07T07:48:15;20.40;99.90
12446;DHT22;6287;50.984;7.022;2023-05-07T07:50:42;20.30;99.90
12446;DHT22;6287;50.984;7.022;2023-05-07T07:53:10;20.30;99.90
12446;DHT22;6287;50.984;7.022;2023-05-07T07:55:39;20.70;99.90
12446;DHT22;6287;50.984;7.022;2023-05-07T07:58:07;20.90;99.90
12446;DHT22;6287;50.984;7.022;2023-05-07T08:00:33;20.90;99.90
12446;DHT22;6287;50.984;7.022;2023-05-07T08:03:03;21.00;99.90
12446;DHT22;6287;50.984;7.022;2023-05-07T08:05:31;21.00;99.90
12446;DHT22;6287;50.984;7.022;2023-05-07T08:07:57;21.00;99.90
12446;DHT22;6287;50.984;7.022;2023-05-07T08:10:25;21.10;99.90
12446;DHT22;6287;50.984;7.022;2023-05-07T08:12:51;21.10;99.90
12446;DHT22;6287;50.984;7.022;2023-05-07T08:15:16;21.20;99.90
12446;DHT22;6287;50.984;7.022;2023-05-07T08:17:45;21.40;99.90
12446;DHT22;6287;50.984;7.022;2023-05-07T08:20:10;21.50;99.90
12446;DHT22;6287;50.984;7.022;2023-05-07T08:22:40;21.60;99.90
12446;DHT22;6287;50.984;7.022;2023-05-07T08:25:06;21.70;99.90
12446;DHT22;6287;50.984;7.022;2023-05-07T08:27:32;21.70;99.90
12446;DHT22;6287;50.984;7.022;2023-05-07T08:29:57;21.80;99.90
12446;DHT22;6287;50.984;7.022;2023-05-07T08:32:25;21.80;99.90
12446;DHT22;6287;50.984;7.022;2023-05-07T08:34:51;21.70;99.90
12446;DHT22;6287;50.984;7.022;2023-05-07T08:37:19;21.70;99.90
12446;DHT22;6287;50.984;7.022;2023-05-07T08:39:44;21.60;99.90
12446;DHT22;6287;50.984;7.022;2023-05-07T08:42:11;21.50;99.90
12446;DHT22;6287;50.984;7.022;2023-05-07T08:44:38;21.50;99.90
12446;DHT22;6287;50.984;7.022;2023-05-07T08:47:07;21.60;99.90
12446;DHT22;6287;50.984;7.022;2023-05-07T08:49:38;21.60;99.90
12446;DHT22;6287;50.984;7.022;2023-05-07T08:52:06;21.60;99.90
12446;DHT22;6287;50.984;7.022;2023-05-07T08:54:35;21.70;99.90
12446;DHT22;6287;50.984;7.022;2023-05-07T08:57:02;21.80;99.90
12446;DHT22;6287;50.984;7.022;2023-05-07T08:59:30;21.90;99.90
12446;DHT22;6287;50.984;7.022;2023-05-07T09:01:55;21.80;99.90
12446;DHT22;6287;50.984;7.022;2023-05-07T09:04:23;21.90;99.90
12446;DHT22;6287;50.984;7.022;2023-05-07T09:06:49;21.90;99.90
12446;DHT22;6287;50.984;7.022;2023-05-07T09:09:17;21.90;99.90
12446;DHT22;6287;50.984;7.022;2023-05-07T09:11:45;21.90;99.90
12446;DHT22;6287;50.984;7.022;2023-05-07T09:14:13;22.00;99.90
12446;DHT22;6287;50.984;7.022;2023-05-07T09:16:38;22.10;99.90
12446;DHT22;6287;50.984;7.022;2023-05-07T09:19:04;22.10;99.90
12446;DHT22;6287;50.984;7.022;2023-05-07T09:21:30;22.10;99.90
12446;DHT22;6287;50.984;7.022;2023-05-07T09:23:56;22.20;99.90
12446;DHT22;6287;50.984;7.022;2023-05-07T09:26:22;22.10;99.90
12446;DHT22;6287;50.984;7.022;2023-05-07T09:28:50;22.10;99.90
12446;DHT22;6287;50.984;7.022;2023-05-07T09:31:18;22.10;99.90
12446;DHT22;6287;50.984;7.022;2023-05-07T09:33:44;22.20;99.90
12446;DHT22;6287;50.984;7.022;2023-05-07T09:36:10;22.50;99.90
12446;DHT22;6287;50.984;7.022;2023-05-07T09:38:40;23.00;99.90
12446;DHT22;6287;50.984;7.022;2023-05-07T09:41:06;23.20;99.90
12446;DHT22;6287;50.984;7.022;2023-05-07T09:43:36;23.40;99.90
12446;DHT22;6287;50.984;7.022;2023-05-07T09:46:15;23.30;99.90
12446;DHT22;6287;50.984;7.022;2023-05-07T09:48:45;23.30;99.90
12446;DHT22;6287;50.984;7.022;2023-05-07T09:51:37;23.40;99.90
12446;DHT22;6287;50.984;7.022;2023-05-07T09:54:07;23.30;99.90
12446;DHT22;6287;50.984;7.022;2023-05-07T09:56:33;23.40;99.90
12446;DHT22;6287;50.984;7.022;2023-05-07T09:59:00;23.60;99.90
12446;DHT22;6287;50.984;7.022;2023-05-07T10:01:27;23.80;99.90
12446;DHT22;6287;50.984;7.022;2023-05-07T10:03:55;24.10;99.90
12446;DHT22;6287;50.984;7.022;2023-05-07T10:06:25;24.20;99.90
12446;DHT22;6287;50.984;7.022;2023-05-07T10:08:58;24.50;99.90
12446;DHT22;6287;50.984;7.022;2023-05-07T10:11:24;24.70;99.90
12446;DHT22;6287;50.984;7.022;2023-05-07T10:13:51;24.80;99.90
12446;DHT22;6287;50.984;7.022;2023-05-07T10:16:18;25.00;99.90
12446;DHT22;6287;50.984;7.022;2023-05-07T10:18:47;25.10;99.90
12446;DHT22;6287;50.984;7.022;2023-05-07T10:23:45;25.10;99.30
12446;DHT22;6287;50.984;7.022;2023-05-07T10:26:18;24.90;98.70
12446;DHT22;6287;50.984;7.022;2023-05-07T10:28:53;24.70;99.90
12446;DHT22;6287;50.984;7.022;2023-05-07T10:34:11;24.70;99.90
12446;DHT22;6287;50.984;7.022;2023-05-07T10:36:38;24.90;98.80
12446;DHT22;6287;50.984;7.022;2023-05-07T10:39:05;25.10;99.10
12446;DHT22;6287;50.984;7.022;2023-05-07T10:41:33;25.40;99.30
12446;DHT22;6287;50.984;7.022;2023-05-07T10:44:04;25.90;98.10
12446;DHT22;6287;50.984;7.022;2023-05-07T10:46:32;26.10;97.20
12446;DHT22;6287;50.984;7.022;2023-05-07T10:51:26;26.00;97.10
12446;DHT22;6287;50.984;7.022;2023-05-07T10:56:40;26.10;97.90
12446;DHT22;6287;50.984;7.022;2023-05-07T11:04:44;27.20;94.60
12446;DHT22;6287;50.984;7.022;2023-05-07T11:17:32;27.30;94.30
12446;DHT22;6287;50.984;7.022;2023-05-07T11:20:03;27.10;95.50
12446;DHT22;6287;50.984;7.022;2023-05-07T11:22:36;27.10;94.50
12446;DHT22;6287;50.984;7.022;2023-05-07T11:25:05;27.10;94.50
12446;DHT22;6287;50.984;7.022;2023-05-07T11:27:34;27.20;94.30
12446;DHT22;6287;50.984;7.022;2023-05-07T11:30:03;27.40;94.80
12446;DHT22;6287;50.984;7.022;2023-05-07T11:32:32;27.60;95.30
12446;DHT22;6287;50.984;7.022;2023-05-07T11:34:59;27.50;94.30
12446;DHT22;6287;50.984;7.022;2023-05-07T11:37:26;27.40;92.60
12446;DHT22;6287;50.984;7.022;2023-05-07T11:40:13;27.20;93.10
12446;DHT22;6287;50.984;7.022;2023-05-07T11:42:43;27.10;92.30
12446;DHT22;6287;50.984;7.022;2023-05-07T11:45:09;27.10;92.90
12446;DHT22;6287;50.984;7.022;2023-05-07T11:47:44;27.10;92.30
12446;DHT22;6287;50.984;7.022;2023-05-07T11:50:12;27.00;91.40
12446;DHT22;6287;50.984;7.022;2023-05-07T11:52:40;26.80;91.80
12446;DHT22;6287;50.984;7.022;2023-05-07T11:55:18;26.50;92.30
12446;DHT22;6287;50.984;7.022;2023-05-07T11:57:48;26.20;92.90
12446;DHT22;6287;50.984;7.022;2023-05-07T12:00:16;26.20;93.70
12446;DHT22;6287;50.984;7.022;2023-05-07T12:02:44;26.00;92.70
12446;DHT22;6287;50.984;7.022;2023-05-07T12:05:10;26.00;93.20
12446;DHT22;6287;50.984;7.022;2023-05-07T12:07:38;25.80;94.10
12446;DHT22;6287;50.984;7.022;2023-05-07T12:10:07;25.70;95.70
12446;DHT22;6287;50.984;7.022;2023-05-07T12:12:38;25.60;96.30
12446;DHT22;6287;50.984;7.022;2023-05-07T12:15:08;25.50;95.90
12446;DHT22;6287;50.984;7.022;2023-05-07T12:17:36;25.40;94.40
12446;DHT22;6287;50.984;7.022;2023-05-07T12:20:02;25.40;93.20
12446;DHT22;6287;50.984;7.022;2023-05-07T12:22:28;25.40;94.10
12446;DHT22;6287;50.984;7.022;2023-05-07T12:24:57;25.30;95.20
12446;DHT22;6287;50.984;7.022;2023-05-07T12:27:23;25.30;94.30
12446;DHT22;6287;50.984;7.022;2023-05-07T12:29:51;25.30;93.20
12446;DHT22;6287;50.984;7.022;2023-05-07T12:32:18;25.40;94.20
12446;DHT22;6287;50.984;7.022;2023-05-07T12:34:49;25.40;93.60
12446;DHT22;6287;50.984;7.022;2023-05-07T12:37:15;25.30;93.20
12446;DHT22;6287;50.984;7.022;2023-05-07T12:40:07;25.40;94.00
12446;DHT22;6287;50.984;7.022;2023-05-07T12:42:36;25.40;93.80
12446;DHT22;6287;50.984;7.022;2023-05-07T12:45:08;25.60;93.70
12446;DHT22;6287;50.984;7.022;2023-05-07T12:47:34;25.60;93.90
12446;DHT22;6287;50.984;7.022;2023-05-07T12:50:04;25.70;94.40
12446;DHT22;6287;50.984;7.022;2023-05-07T12:52:30;25.70;93.60
12446;DHT22;6287;50.984;7.022;2023-05-07T12:54:56;25.80;94.40
12446;DHT22;6287;50.984;7.022;2023-05-07T12:57:22;25.90;93.50
12446;DHT22;6287;50.984;7.022;2023-05-07T12:59:48;25.90;94.20
12446;DHT22;6287;50.984;7.022;2023-05-07T13:02:16;25.70;94.60
12446;DHT22;6287;50.984;7.022;2023-05-07T13:04:43;25.70;94.50
12446;DHT22;6287;50.984;7.022;2023-05-07T13:07:13;25.60;95.00
12446;DHT22;6287;50.984;7.022;2023-05-07T13:09:43;25.40;94.50
12446;DHT22;6287;50.984;7.022;2023-05-07T13:12:08;25.20;95.60
12446;DHT22;6287;50.984;7.022;2023-05-07T13:14:34;25.10;96.10
12446;DHT22;6287;50.984;7.022;2023-05-07T13:17:00;25.10;98.10
12446;DHT22;6287;50.984;7.022;2023-05-07T13:19:25;25.00;98.20
12446;DHT22;6287;50.984;7.022;2023-05-07T13:21:53;24.90;97.40
12446;DHT22;6287;50.984;7.022;2023-05-07T13:24:21;24.80;97.40
12446;DHT22;6287;50.984;7.022;2023-05-07T13:26:46;24.80;95.50
12446;DHT22;6287;50.984;7.022;2023-05-07T13:29:14;24.80;95.10
12446;DHT22;6287;50.984;7.022;2023-05-07T13:31:40;24.90;97.50
12446;DHT22;6287;50.984;7.022;2023-05-07T13:34:09;25.00;96.00
12446;DHT22;6287;50.984;7.022;2023-05-07T13:36:35;25.60;96.20
12446;DHT22;6287;50.984;7.022;2023-05-07T13:39:05;25.00;95.30
12446;DHT22;6287;50.984;7.022;2023-05-07T13:41:36;25.30;96.70
12446;DHT22;6287;50.984;7.022;2023-05-07T13:44:04;25.20;96.50
12446;DHT22;6287;50.984;7.022;2023-05-07T13:46:32;25.30;97.20
12446;DHT22;6287;50.984;7.022;2023-05-07T13:48:58;25.30;96.20
12446;DHT22;6287;50.984;7.022;2023-05-07T13:51:26;25.30;95.90
12446;DHT22;6287;50.984;7.022;2023-05-07T13:53:53;25.30;94.80
12446;DHT22;6287;50.984;7.022;2023-05-07T13:56:19;25.20;94.90
12446;DHT22;6287;50.984;7.022;2023-05-07T13:58:48;25.10;95.70
12446;DHT22;6287;50.984;7.022;2023-05-07T14:01:16;25.00;95.60
12446;DHT22;6287;50.984;7.022;2023-05-07T14:03:41;24.80;95.70
12446;DHT22;6287;50.984;7.022;2023-05-07T14:06:10;24.70;95.30
12446;DHT22;6287;50.984;7.022;2023-05-07T14:08:37;24.40;96.30
12446;DHT22;6287;50.984;7.022;2023-05-07T14:11:08;24.20;95.70
12446;DHT22;6287;50.984;7.022;2023-05-07T14:13:33;24.10;96.30
12446;DHT22;6287;50.984;7.022;2023-05-07T14:15:59;24.00;95.50
12446;DHT22;6287;50.984;7.022;2023-05-07T14:18:28;23.90;96.30
12446;DHT22;6287;50.984;7.022;2023-05-07T14:20:54;23.80;96.40
12446;DHT22;6287;50.984;7.022;2023-05-07T14:23:19;23.80;97.00
12446;DHT22;6287;50.984;7.022;2023-05-07T14:25:56;23.80;97.50
12446;DHT22;6287;50.984;7.022;2023-05-07T14:28:25;23.70;98.80
12446;DHT22;6287;50.984;7.022;2023-05-07T14:30:50;23.70;99.30
12446;DHT22;6287;50.984;7.022;2023-05-07T14:33:17;23.70;99.20
12446;DHT22;6287;50.984;7.022;2023-05-07T14:35:45;23.60;99.30
12446;DHT22;6287;50.984;7.022;2023-05-07T14:38:15;23.50;99.90
12446;DHT22;6287;50.984;7.022;2023-05-07T14:40:41;23.50;99.90
12446;DHT22;6287;50.984;7.022;2023-05-07T14:43:06;23.30;99.90
12446;DHT22;6287;50.984;7.022;2023-05-07T14:45:32;23.20;99.90
12446;DHT22;6287;50.984;7.022;2023-05-07T14:47:57;23.10;99.90
12446;DHT22;6287;50.984;7.022;2023-05-07T14:50:23;23.00;99.90
12446;DHT22;6287;50.984;7.022;2023-05-07T14:52:51;22.90;99.90
12446;DHT22;6287;50.984;7.022;2023-05-07T14:55:17;22.90;99.90
12446;DHT22;6287;50.984;7.022;2023-05-07T14:57:42;22.70;99.90
12446;DHT22;6287;50.984;7.022;2023-05-07T15:00:08;22.70;99.90
12446;DHT22;6287;50.984;7.022;2023-05-07T15:02:38;22.80;99.90
12446;DHT22;6287;50.984;7.022;2023-05-07T15:05:06;22.90;99.90
12446;DHT22;6287;50.984;7.022;2023-05-07T15:07:32;23.10;99.90
12446;DHT22;6287;50.984;7.022;2023-05-07T15:10:02;23.10;99.90
12446;DHT22;6287;50.984;7.022;2023-05-07T15:12:30;23.10;99.90
12446;DHT22;6287;50.984;7.022;2023-05-07T15:14:57;23.10;99.90
12446;DHT22;6287;50.984;7.022;2023-05-07T15:17:25;23.10;99.90
12446;DHT22;6287;50.984;7.022;2023-05-07T15:19:51;23.10;99.90
12446;DHT22;6287;50.984;7.022;2023-05-07T15:22:19;23.20;99.90
12446;DHT22;6287;50.984;7.022;2023-05-07T15:24:47;23.10;99.90
12446;DHT22;6287;50.984;7.022;2023-05-07T15:27:15;23.10;99.90
12446;DHT22;6287;50.984;7.022;2023-05-07T15:29:46;23.10;99.90
12446;DHT22;6287;50.984;7.022;2023-05-07T15:32:16;23.10;99.90
12446;DHT22;6287;50.984;7.022;2023-05-07T15:34:44;23.10;99.90
12446;DHT22;6287;50.984;7.022;2023-05-07T15:37:10;23.10;99.90
12446;DHT22;6287;50.984;7.022;2023-05-07T15:39:37;23.00;99.90
12446;DHT22;6287;50.984;7.022;2023-05-07T15:42:05;23.00;99.90
12446;DHT22;6287;50.984;7.022;2023-05-07T15:44:31;22.90;99.90
12446;DHT22;6287;50.984;7.022;2023-05-07T15:46:59;22.90;99.90
12446;DHT22;6287;50.984;7.022;2023-05-07T15:49:27;22.80;99.90
12446;DHT22;6287;50.984;7.022;2023-05-07T15:51:55;22.70;99.90
12446;DHT22;6287;50.984;7.022;2023-05-07T15:54:22;22.50;99.90
12446;DHT22;6287;50.984;7.022;2023-05-07T15:56:50;22.50;99.90
12446;DHT22;6287;50.984;7.022;2023-05-07T15:59:21;22.40;99.90
12446;DHT22;6287;50.984;7.022;2023-05-07T16:01:47;22.40;99.90
12446;DHT22;6287;50.984;7.022;2023-05-07T16:04:12;22.40;99.90
12446;DHT22;6287;50.984;7.022;2023-05-07T16:06:42;22.40;99.90
12446;DHT22;6287;50.984;7.022;2023-05-07T16:09:14;22.40;99.90
12446;DHT22;6287;50.984;7.022;2023-05-07T16:11:42;22.30;99.90
12446;DHT22;6287;50.984;7.022;2023-05-07T16:14:10;22.40;99.90